AQQ10 IFIS: Internet Flight Information System
logo dgac
Martes 21 de Septiembre del 2021
Buscar por aerodromo o helipuerto
Ingrese nombre de aeródromo, localidad o designador OACI:
SPECI del 21-09-2021 a las 10:42 UTC
Para mayor información visite www.meteochile.cl
SPECI SCFT 211042Z AUTO VRB01KT 9999 ///////// M02/M02 Q1025
Viento: dirección variable, velocidad 1 nudos
Visibilidad: 10 km o más
Temperatura: -2 °C
Rocío: -2 °C
Humedad_relativa: 100%
Presión: 1025 hPa
METAR del 21-09-2021 a las 10:00 UTC
Para mayor información visite www.meteochile.cl
METAR SCFT 211000Z AUTO 00000KT 0900 FG ///////// M01/M01 Q1025
Visibilidad: 900 metros
Niebla
Temperatura: -1 °C
Rocío: -1 °C
Humedad_relativa: 100%
Presión: 1025 hPa
SPECI del 21-09-2021 a las 10:00 UTC
Para mayor información visite www.meteochile.cl
SPECI SCFT 211000Z AUTO 00000KT 0600 FG ///////// M01/M01 Q1025
Visibilidad: 600 metros
Niebla
Temperatura: -1 °C
Rocío: -1 °C
Humedad_relativa: 100%
Presión: 1025 hPa
SPECI del 21-09-2021 a las 10:00 UTC
Para mayor información visite www.meteochile.cl
SPECI SCFT 211000Z AUTO 00000KT 0600 FG ///////// M01/M01 Q1025
Visibilidad: 600 metros
Niebla
Temperatura: -1 °C
Rocío: -1 °C
Humedad_relativa: 100%
Presión: 1025 hPa
SPECI del 21-09-2021 a las 09:44 UTC
Para mayor información visite www.meteochile.cl
SPECI SCFT 210944Z AUTO 00000KT 0750 FG ///////// M01/M01 Q1025
Visibilidad: 750 metros
Niebla
Temperatura: -1 °C
Rocío: -1 °C
Humedad_relativa: 100%
Presión: 1025 hPa
SPECI del 21-09-2021 a las 09:44 UTC
Para mayor información visite www.meteochile.cl
SPECI SCFT 210944Z AUTO 00000KT 0750 FG ///////// M01/M01 Q1025
Visibilidad: 750 metros
Niebla
Temperatura: -1 °C
Rocío: -1 °C
Humedad_relativa: 100%
Presión: 1025 hPa
SPECI del 21-09-2021 a las 09:41 UTC
Para mayor información visite www.meteochile.cl
SPECI SCFT 210941Z AUTO 00000KT 0900 FZFG ///////// M01/M01 Q1025
Visibilidad: 900 metros
Helada Niebla
Temperatura: -1 °C
Rocío: -1 °C
Humedad_relativa: 100%
Presión: 1025 hPa
SPECI del 21-09-2021 a las 09:41 UTC
Para mayor información visite www.meteochile.cl
SPECI SCFT 210941Z AUTO 00000KT 0900 FZFG ///////// M01/M01 Q1025
Visibilidad: 900 metros
Helada Niebla
Temperatura: -1 °C
Rocío: -1 °C
Humedad_relativa: 100%
Presión: 1025 hPa
METAR del 21-09-2021 a las 09:00 UTC
Para mayor información visite www.meteochile.cl
METAR SCFT 210900Z AUTO VRB01KT 9999 ///////// M00/M01 Q1025
Viento: dirección variable, velocidad 1 nudos
Visibilidad: 10 km o más
Temperatura: 0 °C
Rocío: -1 °C
Humedad_relativa: 93%
Presión: 1025 hPa
SPECI del 21-09-2021 a las 08:39 UTC
Para mayor información visite www.meteochile.cl
SPECI SCFT 210839Z AUTO 00000KT 1100 BR ///////// M00/M00 Q1025
Visibilidad: 1100 metros
Neblina
Temperatura: 0 °C
Rocío: -0 °C
Humedad_relativa: 100%
Presión: 1025 hPa